Time;durP1;ratioP1;P1;durP2;ratioP2;P2;SDS_P1;SDS_P2;PMS_P1;PMS_P2;Temp;Humidity;BMP_temperature;BMP_pressure;BME280_temperature;BME280_humidity;BME280_pressure;Samples;Min_cycle;Max_cycle;Signal;HPM_P1;HPM_P2
2022/11/08 00:01:45;;;;;;;13.55;3.00;;;;;;;12.29;89.15;100914.06;5093066;28;20047;-62
2022/11/08 00:04:12;;;;;;;12.38;2.95;;;;;;;12.29;89.26;100916.69;5092714;28;20028;-62
2022/11/08 00:14:52;;;;;;;9.50;2.75;;;;;;;12.25;88.97;100899.91;5096926;28;20548;-62
2022/11/08 00:17:18;;;;;;;10.95;2.80;;;;;;;12.23;89.44;100908.69;5096749;28;20027;-61
2022/11/08 00:19:44;;;;;;;11.68;3.00;;;;;;;12.22;89.50;100906.94;5096430;28;20081;-64
2022/11/08 00:22:10;;;;;;;14.05;3.10;;;;;;;12.19;89.38;100910.44;5096659;28;20431;-62
2022/11/08 00:24:35;;;;;;;9.93;2.78;;;;;;;12.21;89.67;100903.41;5078248;28;20028;-61
2022/11/08 00:27:06;;;;;;;9.75;3.08;;;;;;;12.18;89.74;100906.03;5096498;28;20036;-62
2022/11/08 00:29:35;;;;;;;11.07;3.10;;;;;;;12.20;89.79;100900.72;5096373;28;20032;-62
2022/11/08 00:32:04;;;;;;;10.48;2.85;;;;;;;12.18;89.51;100905.16;5096428;28;20528;-62
2022/11/08 00:34:32;;;;;;;9.52;2.72;;;;;;;12.12;89.77;100903.38;5096284;28;20027;-62
2022/11/08 00:36:57;;;;;;;12.25;3.10;;;;;;;12.11;89.91;100898.91;5096335;28;20028;-62
2022/11/08 00:39:23;;;;;;;12.80;2.92;;;;;;;12.08;89.75;100901.59;5095908;28;20048;-62
2022/11/08 00:41:48;;;;;;;9.93;2.60;;;;;;;12.03;89.93;100890.03;5096182;28;20028;-62
2022/11/08 00:44:13;;;;;;;10.60;2.80;;;;;;;11.97;89.82;100888.25;5096224;28;20020;-62
2022/11/08 00:46:40;;;;;;;9.70;2.97;;;;;;;11.95;90.18;100897.09;5096049;28;20023;-62
2022/11/08 00:49:06;;;;;;;8.05;2.75;;;;;;;11.91;90.35;100887.34;5095973;28;20032;-61
2022/11/08 00:51:31;;;;;;;7.63;2.80;;;;;;;11.86;90.66;100887.34;5095800;28;20028;-61
2022/11/08 00:53:57;;;;;;;9.68;2.70;;;;;;;11.79;90.67;100889.00;5095983;28;20441;-62
2022/11/08 00:56:22;;;;;;;9.13;2.47;;;;;;;11.79;90.79;100888.13;5096003;28;20028;-61
2022/11/08 00:58:48;;;;;;;11.23;3.10;;;;;;;11.70;91.13;100893.38;5095767;28;20042;-62
2022/11/08 01:01:16;;;;;;;9.80;3.03;;;;;;;11.65;91.47;100890.69;5095839;28;20039;-61
2022/11/08 01:03:42;;;;;;;12.07;3.00;;;;;;;11.62;91.76;100877.41;5095893;28;20385;-61
2022/11/08 01:06:09;;;;;;;14.45;3.10;;;;;;;11.60;91.62;100878.28;5095695;28;20028;-61
2022/11/08 01:08:35;;;;;;;11.40;2.83;;;;;;;11.57;91.68;100878.28;5095700;28;20032;-62
2022/11/08 01:11:03;;;;;;;11.02;2.95;;;;;;;11.53;91.99;100878.25;5095617;28;20086;-61
2022/11/08 01:13:29;;;;;;;9.55;3.22;;;;;;;11.49;92.18;100876.44;5095769;28;20019;-62
2022/11/08 01:15:54;;;;;;;10.25;3.00;;;;;;;11.46;92.37;100876.41;5095608;28;20032;-62
2022/11/08 01:18:20;;;;;;;12.45;3.72;;;;;;;11.41;93.22;100891.38;5095568;28;20496;-62
2022/11/08 01:20:47;;;;;;;9.57;3.13;;;;;;;11.38;93.01;100880.75;5077156;28;20063;-62
2022/11/08 01:23:13;;;;;;;14.85;3.45;;;;;;;11.39;93.51;100873.69;5095111;28;20036;-61
2022/11/08 01:25:42;;;;;;;9.75;3.40;;;;;;;11.38;93.24;100872.81;5095278;28;20039;-62
2022/11/08 01:28:09;;;;;;;10.50;3.35;;;;;;;11.38;93.33;100872.81;5095300;28;20039;-61
2022/11/08 01:30:39;;;;;;;10.07;3.22;;;;;;;11.37;93.62;100870.19;5095260;28;20012;-61
2022/11/08 01:33:05;;;;;;;12.27;3.70;;;;;;;11.42;93.28;100874.63;5095126;28;20150;-61
2022/11/08 01:35:32;;;;;;;11.82;3.40;;;;;;;11.45;93.35;100860.53;5095173;28;20474;-61
2022/11/08 01:37:58;;;;;;;10.48;3.20;;;;;;;11.45;93.18;100860.53;5095113;28;20031;-62
2022/11/08 01:40:24;;;;;;;9.52;3.13;;;;;;;11.44;93.52;100857.00;5095042;28;20056;-61
2022/11/08 01:42:49;;;;;;;7.53;3.20;;;;;;;11.38;93.31;100849.00;5095019;28;20039;-62
2022/11/08 01:45:15;;;;;;;9.23;3.03;;;;;;;11.41;93.38;100851.69;5095072;28;20032;-62
2022/11/08 01:47:40;;;;;;;8.75;3.13;;;;;;;11.42;93.21;100856.09;5094888;28;20089;-62
2022/11/08 01:50:13;;;;;;;10.05;2.85;;;;;;;11.43;93.51;100856.97;5094504;28;20024;-61
2022/11/08 01:52:46;;;;;;;12.40;3.10;;;;;;;11.42;92.87;100834.94;5095004;28;20477;-62
2022/11/08 01:55:17;;;;;;;9.40;2.67;;;;;;;11.42;93.15;100827.00;5094686;28;20050;-61
2022/11/08 01:57:48;;;;;;;13.88;2.83;;;;;;;11.43;93.24;100827.88;5094754;28;20107;-62
2022/11/08 02:00:15;;;;;;;7.82;2.67;;;;;;;11.42;93.43;100824.34;5094681;28;20055;-62
2022/11/08 02:02:43;;;;;;;7.50;3.08;;;;;;;11.42;92.99;100819.06;5094590;28;20020;-61
2022/11/08 02:05:24;;;;;;;10.73;3.05;;;;;;;11.41;93.36;100817.28;5094568;28;20032;-62
2022/11/08 02:07:51;;;;;;;9.57;2.80;;;;;;;11.43;93.26;100820.81;5094730;28;20123;-62
2022/11/08 02:10:20;;;;;;;11.02;2.55;;;;;;;11.46;93.25;100804.09;5094561;28;20095;-61
2022/11/08 02:12:46;;;;;;;9.73;2.83;;;;;;;11.48;93.38;100810.28;5094506;28;20035;-62
2022/11/08 02:15:13;;;;;;;9.75;2.63;;;;;;;11.46;92.80;100807.63;5094182;28;20020;-61
2022/11/08 02:17:38;;;;;;;8.82;3.25;;;;;;;11.50;93.38;100801.47;5094367;28;20115;-62
2022/11/08 02:20:05;;;;;;;7.10;2.65;;;;;;;11.51;92.96;100799.72;5094103;28;20115;-62
2022/11/08 02:22:57;;;;;;;6.60;2.67;;;;;;;11.52;92.80;100802.38;5094456;28;20036;-62
2022/11/08 02:25:22;;;;;;;12.38;3.60;;;;;;;11.51;92.94;100792.66;5090087;28;20497;-62
2022/11/08 02:27:47;;;;;;;9.20;2.80;;;;;;;11.54;92.76;100790.03;5094135;28;20115;-62
2022/11/08 02:30:13;;;;;;;6.80;2.80;;;;;;;11.52;92.91;100788.28;5094165;28;20032;-61
2022/11/08 02:32:40;;;;;;;7.60;2.70;;;;;;;11.54;92.15;100783.84;5094002;28;20028;-61
2022/11/08 02:35:10;;;;;;;7.32;2.92;;;;;;;11.53;92.18;100784.75;5092988;28;20031;-62
2022/11/08 02:37:36;;;;;;;7.07;2.60;;;;;;;11.52;92.49;100772.41;5094039;28;20031;-61
2022/11/08 02:40:01;;;;;;;8.20;2.92;;;;;;;11.53;91.98;100764.44;5093760;28;20401;-62
2022/11/08 02:42:27;;;;;;;6.40;2.40;;;;;;;11.50;91.66;100772.38;5093782;28;20025;-62
2022/11/08 02:44:52;;;;;;;5.78;2.55;;;;;;;11.45;92.06;100766.16;5093768;28;20032;-62
2022/11/08 02:47:17;;;;;;;11.50;2.85;;;;;;;11.41;92.47;100769.66;5094054;28;20028;-62
2022/11/08 02:49:43;;;;;;;11.10;2.80;;;;;;;11.36;92.55;100762.59;5093441;28;20486;-61
2022/11/08 02:52:08;;;;;;;7.30;2.60;;;;;;;11.29;93.03;100759.00;5093816;28;20024;-62
2022/11/08 02:54:34;;;;;;;9.98;2.80;;;;;;;11.23;92.89;100753.69;5093363;28;20047;-62
2022/11/08 02:56:59;;;;;;;8.45;2.80;;;;;;;11.21;93.13;100739.56;5093648;28;20039;-62
2022/11/08 02:59:25;;;;;;;10.95;2.90;;;;;;;11.20;93.19;100741.31;5093649;28;20031;-62
2022/11/08 03:01:50;;;;;;;7.53;3.03;;;;;;;11.18;93.24;100740.44;5093456;28;20030;-61
2022/11/08 03:04:15;;;;;;;10.57;3.05;;;;;;;11.14;93.44;100738.66;5093412;28;20028;-62
2022/11/08 03:06:41;;;;;;;9.88;3.50;;;;;;;11.12;93.44;100723.63;5093634;28;20047;-62
2022/11/08 03:09:06;;;;;;;6.05;3.40;;;;;;;11.08;93.48;100732.41;5093406;28;20080;-61
2022/11/08 03:11:32;;;;;;;12.82;3.47;;;;;;;11.02;93.78;100718.28;5093434;28;20131;-61
2022/11/08 03:13:57;;;;;;;9.77;3.20;;;;;;;10.99;93.67;100726.19;5093164;28;20377;-62
2022/11/08 03:16:22;;;;;;;9.90;3.00;;;;;;;10.98;94.09;100711.22;5093160;28;20020;-60
2022/11/08 03:18:48;;;;;;;10.70;3.20;;;;;;;10.94;93.48;100705.88;5093278;28;20107;-62
2022/11/08 03:21:13;;;;;;;10.65;3.30;;;;;;;10.91;93.75;100700.56;5074821;28;20020;-62
2022/11/08 03:23:38;;;;;;;9.85;3.42;;;;;;;10.90;93.55;100699.69;5093205;28;20497;-62
2022/11/08 03:26:05;;;;;;;11.38;3.03;;;;;;;10.91;93.84;100703.22;5093100;28;20031;-62
2022/11/08 03:28:30;;;;;;;8.13;3.03;;;;;;;10.90;93.81;100698.81;5092990;28;20085;-62
2022/11/08 03:30:56;;;;;;;12.13;3.35;;;;;;;10.89;94.23;100691.75;5093113;28;20036;-62
2022/11/08 03:33:22;;;;;;;9.30;2.80;;;;;;;10.89;94.08;100690.00;5092990;28;20512;-61
2022/11/08 03:35:48;;;;;;;8.35;2.53;;;;;;;10.90;93.49;100691.75;5093152;28;20028;-62
2022/11/08 03:38:14;;;;;;;11.93;3.00;;;;;;;10.87;93.76;100683.78;5092959;28;20066;-61
2022/11/08 03:40:39;;;;;;;12.00;3.00;;;;;;;10.87;93.87;100677.63;5093006;28;20051;-61
2022/11/08 03:43:05;;;;;;;7.35;2.70;;;;;;;10.83;93.52;100668.78;5092965;28;20103;-62
2022/11/08 03:45:30;;;;;;;8.10;2.63;;;;;;;10.79;93.61;100669.63;5074792;28;20032;-61
2022/11/08 03:47:56;;;;;;;8.55;2.72;;;;;;;10.77;93.35;100651.13;5092636;28;20457;-61
2022/11/08 03:50:21;;;;;;;10.38;2.80;;;;;;;10.76;93.48;100653.78;5092740;28;20036;-61
2022/11/08 03:52:52;;;;;;;7.28;2.50;;;;;;;10.78;93.46;100636.16;5092704;28;20032;-61
2022/11/08 03:55:20;;;;;;;7.72;2.75;;;;;;;10.78;93.19;100652.91;5092771;28;20470;-62
2022/11/08 03:57:46;;;;;;;9.57;2.90;;;;;;;10.75;93.50;100641.44;5092757;28;20398;-61
2022/11/08 04:00:14;;;;;;;10.63;3.00;;;;;;;10.73;93.35;100641.41;5092825;28;20031;-61
2022/11/08 04:02:40;;;;;;;9.75;2.90;;;;;;;10.74;92.97;100626.44;5092901;28;20029;-61
2022/11/08 04:05:06;;;;;;;6.03;2.70;;;;;;;10.64;93.48;100629.91;5092962;28;20034;-62
2022/11/08 04:07:32;;;;;;;8.48;3.00;;;;;;;10.65;93.74;100636.97;5092990;28;20052;-61
2022/11/08 04:09:57;;;;;;;8.95;2.83;;;;;;;10.65;93.13;100624.63;5092834;28;20525;-62
2022/11/08 04:15:14;;;;;;;7.80;3.05;;;;;;;10.60;92.96;100621.06;5092858;28;20177;-61
2022/11/08 04:23:08;;;;;;;11.30;2.85;;;;;;;10.60;92.31;100596.41;5092847;28;20039;-61
2022/11/08 04:25:34;;;;;;;8.60;2.88;;;;;;;10.58;92.44;100604.34;5092623;28;20020;-62
2022/11/08 04:27:59;;;;;;;6.28;2.75;;;;;;;10.58;92.10;100606.97;5092662;28;20103;-61
2022/11/08 04:30:25;;;;;;;8.35;2.72;;;;;;;10.57;92.08;100591.97;5074430;28;20025;-62
2022/11/08 04:32:50;;;;;;;8.73;2.40;;;;;;;10.53;91.78;100604.31;5092498;28;20028;-61
2022/11/08 04:35:15;;;;;;;8.70;2.67;;;;;;;10.52;91.73;100593.72;5074275;28;20059;-62
2022/11/08 04:37:41;;;;;;;6.32;2.70;;;;;;;10.47;91.95;100588.41;5092633;28;20366;-62
2022/11/08 04:40:08;;;;;;;9.15;2.58;;;;;;;10.46;91.74;100591.91;5092182;28;20056;-61
2022/11/08 04:42:33;;;;;;;10.27;2.63;;;;;;;10.46;91.57;100585.75;5092354;28;20057;-61
2022/11/08 04:44:59;;;;;;;6.47;2.38;;;;;;;10.47;91.39;100601.59;5092338;28;20036;-61
2022/11/08 04:47:24;;;;;;;7.88;2.65;;;;;;;10.47;91.42;100590.16;5092382;28;20146;-62
2022/11/08 04:49:49;;;;;;;6.88;2.45;;;;;;;10.43;90.94;100578.69;5092077;28;20035;-62
2022/11/08 04:52:15;;;;;;;5.75;2.47;;;;;;;10.43;91.11;100583.97;5074320;28;20024;-61
2022/11/08 04:54:43;;;;;;;7.07;2.72;;;;;;;10.42;90.39;100561.06;5092198;28;20025;-62
2022/11/08 04:57:09;;;;;;;5.72;2.53;;;;;;;10.43;90.63;100557.56;5092449;28;20035;-61
2022/11/08 04:59:35;;;;;;;4.72;2.15;;;;;;;10.43;90.01;100559.31;5094460;28;20024;-62
2022/11/08 05:02:00;;;;;;;10.00;2.40;;;;;;;10.44;89.92;100545.22;5095782;28;20034;-62
2022/11/08 05:04:25;;;;;;;5.13;2.25;;;;;;;10.42;89.62;100547.00;5095684;28;20040;-61
2022/11/08 05:06:51;;;;;;;6.07;2.30;;;;;;;10.35;89.55;100535.47;5095645;28;20028;-62
2022/11/08 05:09:16;;;;;;;6.88;2.80;;;;;;;10.42;89.60;100542.59;5095625;28;20070;-61
2022/11/08 05:11:41;;;;;;;5.57;2.25;;;;;;;10.41;89.56;100537.31;5095660;28;20102;-62
2022/11/08 05:14:07;;;;;;;8.10;2.47;;;;;;;10.42;88.91;100542.59;5095558;28;20059;-61
2022/11/08 05:16:32;;;;;;;7.18;2.30;;;;;;;10.45;88.55;100532.06;5077275;28;20043;-62
2022/11/08 05:18:59;;;;;;;6.60;2.67;;;;;;;10.46;88.53;100539.09;5095810;28;20036;-61
2022/11/08 05:24:11;;;;;;;5.18;2.40;;;;;;;10.50;87.66;100534.72;5095683;28;20043;-62
2022/11/08 05:26:40;;;;;;;7.78;2.20;;;;;;;10.53;87.67;100548.84;5095280;28;20089;-62
2022/11/08 05:29:06;;;;;;;8.25;2.25;;;;;;;10.57;87.25;100539.13;5095154;28;20028;-62
2022/11/08 05:31:31;;;;;;;8.15;2.60;;;;;;;10.58;86.51;100534.72;5095201;28;20077;-62
2022/11/08 05:33:58;;;;;;;6.38;2.33;;;;;;;10.59;86.50;100524.19;5095175;28;20035;-62
2022/11/08 05:36:24;;;;;;;7.78;2.20;;;;;;;10.58;86.30;100530.38;5095070;28;20362;-62
2022/11/08 05:38:49;;;;;;;7.60;2.55;;;;;;;10.57;86.12;100515.34;5094827;28;20085;-61
2022/11/08 05:41:17;;;;;;;7.22;2.20;;;;;;;10.56;86.16;100518.00;5094934;28;20082;-62
2022/11/08 05:43:48;;;;;;;7.88;2.50;;;;;;;10.58;85.79;100511.88;5095006;28;20020;-62
2022/11/08 05:46:16;;;;;;;8.65;2.40;;;;;;;10.56;85.92;100520.66;5094869;28;20020;-62
2022/11/08 05:48:42;;;;;;;5.43;2.10;;;;;;;10.56;85.51;100518.88;5094852;28;20028;-62
2022/11/08 05:51:08;;;;;;;8.05;2.42;;;;;;;10.56;85.61;100520.66;5094704;28;20119;-61
2022/11/08 05:53:33;;;;;;;6.40;2.72;;;;;;;10.53;85.65;100517.13;5094738;28;20519;-61
2022/11/08 05:56:01;;;;;;;7.22;2.25;;;;;;;10.56;85.87;100520.66;5094568;28;20028;-61
2022/11/08 05:58:28;;;;;;;6.43;2.40;;;;;;;10.56;85.85;100512.72;5094711;28;20032;-62
2022/11/08 06:01:06;;;;;;;4.68;2.22;;;;;;;10.54;85.63;100520.66;5094618;28;20389;-61
2022/11/08 06:03:32;;;;;;;5.20;2.50;;;;;;;10.54;85.28;100512.72;5094689;28;20028;-62
2022/11/08 06:06:08;;;;;;;6.18;2.50;;;;;;;10.54;85.30;100499.50;5094622;28;20508;-62
2022/11/08 06:08:34;;;;;;;8.13;2.50;;;;;;;10.53;84.81;100503.91;5076507;28;20610;-62
2022/11/08 06:11:07;;;;;;;4.57;2.15;;;;;;;10.58;84.58;100510.97;5094432;28;20099;-61
2022/11/08 06:13:33;;;;;;;5.93;2.30;;;;;;;10.55;84.76;100508.31;5094695;28;20028;-62
2022/11/08 06:16:01;;;;;;;4.70;2.38;;;;;;;10.53;84.37;100498.63;5094333;28;20032;-62
2022/11/08 06:18:26;;;;;;;5.57;2.28;;;;;;;10.52;84.61;100502.13;5094495;28;20052;-61
2022/11/08 06:20:52;;;;;;;8.50;2.75;;;;;;;10.52;84.42;100507.41;5094129;28;20206;-61
2022/11/08 06:23:17;;;;;;;4.60;2.17;;;;;;;10.55;84.58;100519.78;5094777;28;20024;-62
2022/11/08 06:25:45;;;;;;;6.50;2.83;;;;;;;10.52;84.51;100502.13;5114469;28;20028;-62
2022/11/08 06:28:12;;;;;;;6.45;2.38;;;;;;;10.54;84.11;100504.81;5114547;28;20035;-61
2022/11/08 06:30:37;;;;;;;6.28;2.40;;;;;;;10.52;84.01;100512.69;5114616;28;20038;-62
2022/11/08 06:33:03;;;;;;;4.78;2.50;;;;;;;10.51;84.51;100513.59;5114479;28;20028;-61
2022/11/08 06:35:28;;;;;;;4.63;2.22;;;;;;;10.51;84.08;100515.34;5114367;28;20028;-62
2022/11/08 06:37:54;;;;;;;5.57;2.60;;;;;;;10.49;84.10;100506.50;5114629;28;20025;-61
2022/11/08 06:40:19;;;;;;;8.35;2.83;;;;;;;10.43;84.43;100503.84;5114101;28;20463;-61
2022/11/08 06:42:44;;;;;;;7.15;2.53;;;;;;;10.44;84.70;100513.53;5114210;28;20027;-62
2022/11/08 06:45:10;;;;;;;5.28;2.67;;;;;;;10.42;84.32;100515.28;5114229;28;20606;-62
2022/11/08 06:47:35;;;;;;;9.95;3.08;;;;;;;10.39;84.32;100521.44;5114380;28;20384;-61
2022/11/08 06:50:00;;;;;;;6.20;2.90;;;;;;;10.40;84.65;100515.25;5113804;28;20381;-61
2022/11/08 06:52:26;;;;;;;6.95;2.90;;;;;;;10.41;84.58;100509.13;5114370;28;20032;-61
2022/11/08 06:54:51;;;;;;;6.78;2.80;;;;;;;10.36;84.62;100505.56;5113853;28;20058;-61
2022/11/08 06:57:17;;;;;;;4.93;2.58;;;;;;;10.35;84.74;100490.59;5113948;28;20492;-61
2022/11/08 06:59:42;;;;;;;6.85;2.50;;;;;;;10.39;84.24;100502.06;5113873;28;20477;-61
2022/11/08 07:02:09;;;;;;;8.55;2.65;;;;;;;10.38;84.08;100518.78;5114152;28;20035;-61
2022/11/08 07:04:34;;;;;;;5.68;2.90;;;;;;;10.39;84.00;100509.97;5095637;28;20412;-62
2022/11/08 07:07:00;;;;;;;4.47;2.60;;;;;;;10.38;84.25;100518.78;5113682;28;20102;-61
2022/11/08 07:09:25;;;;;;;7.97;2.50;;;;;;;10.38;83.86;100518.78;5113740;28;20054;-61
2022/11/08 07:11:50;;;;;;;6.85;2.60;;;;;;;10.38;84.07;100518.78;5113689;28;20112;-62
2022/11/08 07:14:16;;;;;;;5.32;2.60;;;;;;;10.40;83.89;100527.59;5113685;28;20393;-61
2022/11/08 07:16:41;;;;;;;6.07;2.60;;;;;;;10.41;84.08;100529.38;5113537;28;20031;-62
2022/11/08 07:19:07;;;;;;;5.55;2.75;;;;;;;10.43;84.05;100527.63;5113784;28;20070;-61
2022/11/08 07:21:32;;;;;;;9.52;2.85;;;;;;;10.46;83.48;100530.28;5112838;28;20366;-62
2022/11/08 07:23:57;;;;;;;6.93;2.78;;;;;;;10.46;83.79;100528.53;5113233;28;20418;-62
2022/11/08 07:26:23;;;;;;;6.40;2.67;;;;;;;10.47;83.05;100519.72;5113501;28;20031;-61
2022/11/08 07:28:48;;;;;;;5.97;2.55;;;;;;;10.49;83.18;100518.00;5113442;28;20485;-61
2022/11/08 07:31:14;;;;;;;7.00;2.80;;;;;;;10.51;83.37;100520.63;5113426;28;20024;-62
2022/11/08 07:33:39;;;;;;;9.45;3.03;;;;;;;10.55;83.11;100509.19;5113381;28;20084;-62
2022/11/08 07:36:05;;;;;;;6.70;2.80;;;;;;;10.59;82.86;100510.09;5113247;28;20075;-63
2022/11/08 07:38:30;;;;;;;5.38;2.80;;;;;;;10.59;82.54;100518.91;5113143;28;20058;-62
2022/11/08 07:40:57;;;;;;;7.93;2.85;;;;;;;10.61;82.85;100522.44;5113473;28;20354;-62
2022/11/08 07:43:22;;;;;;;4.70;2.55;;;;;;;10.62;82.47;100524.22;5094994;28;20028;-61
2022/11/08 07:45:54;;;;;;;8.23;2.80;;;;;;;10.66;82.95;100523.38;5113258;28;20032;-61
2022/11/08 07:48:19;;;;;;;5.67;2.57;;;;;;;10.72;82.28;100511.94;5113561;28;20024;-61
2022/11/08 07:50:45;;;;;;;8.00;2.63;;;;;;;10.77;81.95;100511.06;5112878;28;20042;-61
2022/11/08 07:53:11;;;;;;;8.27;3.13;;;;;;;10.77;82.35;100518.13;5113178;28;20016;-61
2022/11/08 07:55:37;;;;;;;5.47;2.60;;;;;;;10.83;81.87;100510.19;5113096;28;20099;-62
2022/11/08 07:58:04;;;;;;;8.23;2.75;;;;;;;10.85;81.86;100507.59;5113297;28;20028;-61
2022/11/08 08:00:30;;;;;;;7.97;2.85;;;;;;;10.91;81.58;100497.91;5113177;28;20356;-61
2022/11/08 08:03:00;;;;;;;6.00;2.70;;;;;;;10.95;81.33;100501.44;5113300;28;20031;-61
2022/11/08 08:05:27;;;;;;;7.70;2.85;;;;;;;10.96;81.01;100501.47;5113037;28;20503;-62
2022/11/08 08:07:56;;;;;;;9.35;2.97;;;;;;;11.01;80.59;100501.47;5113239;28;20020;-61
2022/11/08 08:10:21;;;;;;;4.68;2.65;;;;;;;11.07;79.72;100505.91;5113080;28;20028;-61
2022/11/08 08:12:47;;;;;;;7.07;3.10;;;;;;;11.14;79.83;100508.56;5112983;28;20480;-61
2022/11/08 08:15:12;;;;;;;5.75;2.90;;;;;;;11.24;78.94;100496.25;5112887;28;20051;-61
2022/11/08 08:17:37;;;;;;;6.75;2.75;;;;;;;11.32;78.23;100506.84;5112939;28;20036;-62
2022/11/08 08:20:03;;;;;;;5.72;2.45;;;;;;;11.40;77.98;100503.34;5112747;28;20024;-61
2022/11/08 08:22:29;;;;;;;5.55;2.80;;;;;;;11.54;76.73;100509.53;5112918;28;20024;-61
2022/11/08 08:24:54;;;;;;;7.30;2.42;;;;;;;11.63;76.46;100507.78;5112914;28;20027;-61
2022/11/08 08:27:19;;;;;;;6.43;2.38;;;;;;;11.73;75.53;100501.59;5113027;28;20058;-61
2022/11/08 08:29:45;;;;;;;4.68;2.33;;;;;;;11.80;75.52;100521.91;5112851;28;20032;-61
2022/11/08 08:32:10;;;;;;;7.85;2.22;;;;;;;11.87;74.61;100513.13;5112651;28;20038;-61
2022/11/08 08:34:35;;;;;;;4.90;2.20;;;;;;;11.97;74.56;100519.28;5115143;28;20063;-61
2022/11/08 08:37:01;;;;;;;5.75;2.28;;;;;;;12.05;73.50;100521.94;5116681;28;20500;-61
2022/11/08 08:39:26;;;;;;;4.40;2.20;;;;;;;12.11;73.16;100528.09;5116498;28;20051;-61
2022/11/08 08:41:52;;;;;;;4.60;2.30;;;;;;;12.25;72.77;100559.91;5116895;28;20102;-62
2022/11/08 08:44:17;;;;;;;4.68;2.28;;;;;;;12.41;71.97;100536.91;5116549;28;20477;-61
2022/11/08 08:46:42;;;;;;;3.63;2.00;;;;;;;12.57;72.36;100524.50;5116762;28;20032;-61
2022/11/08 08:49:08;;;;;;;5.63;2.25;;;;;;;12.84;71.13;100518.22;5116591;28;20024;-63
2022/11/08 08:51:33;;;;;;;4.18;2.00;;;;;;;12.99;69.53;100518.19;5116149;28;20020;-61
2022/11/08 08:53:59;;;;;;;3.90;2.10;;;;;;;13.01;68.92;100521.69;5116349;28;20081;-61
2022/11/08 08:56:24;;;;;;;5.28;2.13;;;;;;;12.96;69.28;100527.03;5116090;28;20027;-61
2022/11/08 08:58:49;;;;;;;4.22;2.00;;;;;;;12.98;69.50;100505.81;5116530;28;20503;-61
2022/11/08 09:01:15;;;;;;;4.32;2.10;;;;;;;12.99;69.45;100502.28;5116177;28;20030;-61
2022/11/08 09:03:40;;;;;;;5.00;2.35;;;;;;;12.99;68.88;100516.41;5116131;28;20020;-61
2022/11/08 09:06:06;;;;;;;5.03;2.22;;;;;;;12.99;69.37;100507.56;5116250;28;20027;-61
2022/11/08 09:08:32;;;;;;;6.20;2.28;;;;;;;12.97;69.16;100507.56;5115879;28;20369;-61
2022/11/08 09:10:59;;;;;;;5.72;2.05;;;;;;;12.99;69.09;100500.50;5115954;28;20093;-61
2022/11/08 09:13:26;;;;;;;5.40;2.30;;;;;;;13.07;68.97;100487.19;5115921;28;20538;-61
2022/11/08 09:15:52;;;;;;;3.88;2.20;;;;;;;13.17;68.51;100485.38;5097646;28;20357;-61
2022/11/08 09:18:18;;;;;;;5.28;2.35;;;;;;;13.23;68.89;100483.63;5115823;28;20088;-61
2022/11/08 09:20:44;;;;;;;4.82;2.40;;;;;;;13.24;68.93;100495.97;5115685;28;20011;-61
2022/11/08 09:23:10;;;;;;;5.38;2.10;;;;;;;13.26;68.79;100506.56;5115734;28;20464;-63
2022/11/08 09:25:36;;;;;;;4.50;2.28;;;;;;;13.30;68.43;100508.31;5116030;28;20023;-61
2022/11/08 09:28:02;;;;;;;6.55;2.35;;;;;;;13.30;69.04;100483.56;5115484;28;20095;-61
2022/11/08 09:30:27;;;;;;;7.32;2.50;;;;;;;13.31;68.41;100485.31;5115629;28;20041;-61
2022/11/08 09:32:53;;;;;;;7.30;2.30;;;;;;;13.32;68.68;100484.41;5115674;28;20027;-61
2022/11/08 09:35:19;;;;;;;4.80;2.63;;;;;;;13.31;68.32;100474.69;5097330;28;20020;-62
2022/11/08 09:37:44;;;;;;;4.95;2.15;;;;;;;13.30;68.34;100481.78;5115762;28;20157;-61
2022/11/08 09:40:19;;;;;;;4.18;2.20;;;;;;;13.30;68.28;100484.44;5115282;28;20044;-62
2022/11/08 09:42:50;;;;;;;5.85;2.45;;;;;;;13.31;68.25;100494.16;5115709;28;20028;-61
2022/11/08 09:45:31;;;;;;;4.45;2.13;;;;;;;13.34;68.24;100504.75;5115225;28;20016;-61
2022/11/08 09:48:01;;;;;;;3.78;2.25;;;;;;;13.39;68.50;100504.72;5115660;28;20114;-61
2022/11/08 09:50:33;;;;;;;6.15;2.30;;;;;;;13.45;68.43;100478.16;5115341;28;20103;-61
2022/11/08 09:53:11;;;;;;;5.18;2.20;;;;;;;13.53;67.68;100481.63;5115559;28;20026;-61
2022/11/08 09:55:46;;;;;;;4.32;2.38;;;;;;;13.65;67.39;100492.16;5115490;28;20137;-61
2022/11/08 09:58:20;;;;;;;4.22;2.30;;;;;;;13.74;67.52;100509.78;5115481;28;20024;-62
2022/11/08 10:00:49;;;;;;;5.07;2.30;;;;;;;13.84;67.22;100498.22;5115427;28;20028;-61
2022/11/08 10:03:16;;;;;;;3.75;2.10;;;;;;;14.00;67.35;100504.25;5115382;28;20090;-61
2022/11/08 10:05:50;;;;;;;4.10;2.17;;;;;;;14.18;66.10;100509.44;5115252;28;20476;-61
2022/11/08 10:08:43;;;;;;;6.38;2.42;;;;;;;14.38;65.59;100503.91;5115293;28;20077;-61
2022/11/08 10:11:24;;;;;;;6.97;2.13;;;;;;;14.53;65.33;100502.91;5115371;28;20027;-61
2022/11/08 10:14:01;;;;;;;4.40;2.20;;;;;;;14.69;63.86;100511.59;5115191;28;20066;-61
2022/11/08 10:16:42;;;;;;;4.50;2.17;;;;;;;14.74;63.54;100507.97;5115023;28;20055;-61
2022/11/08 10:19:38;;;;;;;5.57;2.25;;;;;;;14.89;63.71;100508.69;5115126;28;20095;-61
2022/11/08 10:22:28;;;;;;;4.22;2.20;;;;;;;14.97;63.45;100506.81;5115020;28;20020;-61
2022/11/08 10:24:59;;;;;;;4.30;2.25;;;;;;;15.01;62.63;100524.50;5114995;28;20028;-61
2022/11/08 10:27:34;;;;;;;4.82;2.30;;;;;;;15.01;63.56;100504.09;5114913;28;20027;-61
2022/11/08 10:30:04;;;;;;;4.50;2.20;;;;;;;14.98;62.00;100514.75;5114755;28;20361;-60
2022/11/08 10:32:32;;;;;;;6.40;2.28;;;;;;;14.97;62.52;100528.09;5114618;28;20038;-61
2022/11/08 10:35:09;;;;;;;4.15;2.20;;;;;;;14.87;62.49;100529.13;5114571;28;20028;-62
2022/11/08 10:37:36;;;;;;;6.70;2.13;;;;;;;14.83;62.40;100516.75;5114585;28;20034;-61
2022/11/08 10:40:16;;;;;;;5.15;2.42;;;;;;;14.78;63.53;100525.66;5114410;28;20050;-61
2022/11/08 10:42:45;;;;;;;4.70;2.17;;;;;;;14.72;63.35;100532.81;5114638;28;20031;-61
2022/11/08 10:45:11;;;;;;;6.32;2.42;;;;;;;14.71;63.51;100523.97;5114577;28;20027;-61
2022/11/08 10:47:38;;;;;;;5.82;2.30;;;;;;;14.68;62.89;100523.13;5114692;28;20380;-61
2022/11/08 10:50:30;;;;;;;6.78;2.15;;;;;;;14.68;63.90;100529.31;5114187;28;20039;-61
2022/11/08 10:53:03;;;;;;;4.80;2.47;;;;;;;14.66;63.65;100524.94;5114353;28;20031;-60
2022/11/08 10:55:37;;;;;;;3.15;2.10;;;;;;;14.67;63.93;100524.03;5113970;28;20080;-61
2022/11/08 10:58:23;;;;;;;4.78;2.25;;;;;;;14.69;63.56;100519.59;5114121;28;20035;-61
2022/11/08 11:00:59;;;;;;;6.47;2.20;;;;;;;14.73;62.92;100516.88;5114174;28;20059;-61
2022/11/08 11:03:27;;;;;;;7.35;2.55;;;;;;;14.76;63.23;100522.13;5114275;28;20027;-61
2022/11/08 11:06:04;;;;;;;4.18;2.10;;;;;;;14.87;62.40;100523.81;5114399;28;20105;-61
2022/11/08 11:08:30;;;;;;;3.88;2.08;;;;;;;14.86;62.87;100504.31;5114053;28;20020;-61
2022/11/08 11:11:23;;;;;;;4.28;2.25;;;;;;;14.88;63.59;100504.28;5114277;28;20024;-61
2022/11/08 11:14:05;;;;;;;5.95;2.15;;;;;;;14.88;62.43;100489.19;5114002;28;20031;-61
2022/11/08 11:16:31;;;;;;;7.68;2.50;;;;;;;14.88;62.41;100488.31;5113886;28;20363;-61
2022/11/08 11:19:00;;;;;;;7.78;2.40;;;;;;;14.89;62.78;100485.63;5095947;28;20094;-62
2022/11/08 11:21:34;;;;;;;6.97;2.40;;;;;;;14.89;63.22;100476.75;5113913;28;20019;-61
2022/11/08 11:24:16;;;;;;;6.65;2.45;;;;;;;14.95;62.78;100476.69;5113912;28;20027;-61
2022/11/08 11:26:45;;;;;;;5.40;2.53;;;;;;;14.93;63.22;100481.16;5113891;28;20062;-61
2022/11/08 11:29:20;;;;;;;7.88;2.13;;;;;;;15.02;62.88;100494.31;5113614;28;20477;-61
2022/11/08 11:31:49;;;;;;;5.82;2.33;;;;;;;15.08;62.54;100461.44;5113725;28;20039;-63
2022/11/08 11:34:18;;;;;;;6.25;2.60;;;;;;;15.13;63.37;100471.13;5095421;28;20031;-69
2022/11/08 11:36:46;;;;;;;4.35;2.35;;;;;;;15.15;62.71;100444.47;5113821;28;20108;-61
2022/11/08 11:39:31;;;;;;;6.07;2.20;;;;;;;15.18;62.08;100428.47;5091632;28;20040;-61
2022/11/08 11:42:10;;;;;;;3.88;2.25;;;;;;;15.22;62.11;100447.03;5093298;28;20034;-61
2022/11/08 11:44:45;;;;;;;5.05;2.20;;;;;;;15.31;61.65;100472.63;5093244;28;20024;-61
2022/11/08 11:47:36;;;;;;;4.05;2.40;;;;;;;15.37;62.63;100467.19;5093298;28;20028;-61